sensor_id;sensor_type;location;lat;lon;timestamp;P1;durP1;ratioP1;P2;durP2;ratioP2
24891;SDS011;12954;50.688;10.908;2023-04-25T00:01:39;5.30;;;3.42;;
24891;SDS011;12954;50.688;10.908;2023-04-25T00:04:08;6.70;;;3.88;;
24891;SDS011;12954;50.688;10.908;2023-04-25T00:06:38;6.63;;;3.58;;
24891;SDS011;12954;50.688;10.908;2023-04-25T00:09:06;5.68;;;3.80;;
24891;SDS011;12954;50.688;10.908;2023-04-25T00:11:35;6.13;;;3.92;;
24891;SDS011;12954;50.688;10.908;2023-04-25T00:14:04;6.43;;;3.88;;
24891;SDS011;12954;50.688;10.908;2023-04-25T00:16:33;4.90;;;3.65;;
24891;SDS011;12954;50.688;10.908;2023-04-25T00:19:02;6.65;;;4.05;;
24891;SDS011;12954;50.688;10.908;2023-04-25T00:21:30;5.43;;;3.80;;
24891;SDS011;12954;50.688;10.908;2023-04-25T00:24:01;8.32;;;3.83;;
24891;SDS011;12954;50.688;10.908;2023-04-25T00:26:29;7.10;;;3.88;;
24891;SDS011;12954;50.688;10.908;2023-04-25T00:28:57;6.47;;;4.07;;
24891;SDS011;12954;50.688;10.908;2023-04-25T00:31:26;6.53;;;3.95;;
24891;SDS011;12954;50.688;10.908;2023-04-25T00:33:55;7.50;;;4.05;;
24891;SDS011;12954;50.688;10.908;2023-04-25T00:36:24;5.38;;;3.50;;
24891;SDS011;12954;50.688;10.908;2023-04-25T00:38:52;7.55;;;4.47;;
24891;SDS011;12954;50.688;10.908;2023-04-25T00:41:22;6.90;;;4.07;;
24891;SDS011;12954;50.688;10.908;2023-04-25T00:43:53;5.88;;;4.15;;
24891;SDS011;12954;50.688;10.908;2023-04-25T00:46:22;6.38;;;3.90;;
24891;SDS011;12954;50.688;10.908;2023-04-25T00:48:51;6.22;;;4.18;;
24891;SDS011;12954;50.688;10.908;2023-04-25T00:51:20;5.95;;;4.25;;
24891;SDS011;12954;50.688;10.908;2023-04-25T00:53:49;5.47;;;3.85;;
24891;SDS011;12954;50.688;10.908;2023-04-25T00:56:18;5.80;;;3.90;;
24891;SDS011;12954;50.688;10.908;2023-04-25T00:58:50;8.05;;;4.47;;
24891;SDS011;12954;50.688;10.908;2023-04-25T01:01:21;5.72;;;4.07;;
24891;SDS011;12954;50.688;10.908;2023-04-25T01:03:50;7.68;;;5.10;;
24891;SDS011;12954;50.688;10.908;2023-04-25T01:06:21;7.45;;;5.03;;
24891;SDS011;12954;50.688;10.908;2023-04-25T01:08:50;6.47;;;4.28;;
24891;SDS011;12954;50.688;10.908;2023-04-25T01:11:19;7.32;;;4.57;;
24891;SDS011;12954;50.688;10.908;2023-04-25T01:13:47;7.43;;;4.70;;
24891;SDS011;12954;50.688;10.908;2023-04-25T01:16:17;6.80;;;4.65;;
24891;SDS011;12954;50.688;10.908;2023-04-25T01:18:46;7.60;;;4.88;;
24891;SDS011;12954;50.688;10.908;2023-04-25T01:21:18;9.68;;;5.90;;
24891;SDS011;12954;50.688;10.908;2023-04-25T01:23:47;6.60;;;4.93;;
24891;SDS011;12954;50.688;10.908;2023-04-25T01:26:16;6.65;;;4.78;;
24891;SDS011;12954;50.688;10.908;2023-04-25T01:28:45;7.57;;;4.85;;
24891;SDS011;12954;50.688;10.908;2023-04-25T01:31:14;7.60;;;5.28;;
24891;SDS011;12954;50.688;10.908;2023-04-25T01:33:43;7.18;;;4.82;;
24891;SDS011;12954;50.688;10.908;2023-04-25T01:36:12;9.18;;;5.47;;
24891;SDS011;12954;50.688;10.908;2023-04-25T01:38:42;8.45;;;5.07;;
24891;SDS011;12954;50.688;10.908;2023-04-25T01:41:12;7.20;;;4.93;;
24891;SDS011;12954;50.688;10.908;2023-04-25T01:43:41;6.85;;;5.28;;
24891;SDS011;12954;50.688;10.908;2023-04-25T01:46:10;9.27;;;4.45;;
24891;SDS011;12954;50.688;10.908;2023-04-25T01:48:39;5.95;;;4.47;;
24891;SDS011;12954;50.688;10.908;2023-04-25T01:51:07;7.65;;;4.97;;
24891;SDS011;12954;50.688;10.908;2023-04-25T01:53:38;8.15;;;4.68;;
24891;SDS011;12954;50.688;10.908;2023-04-25T01:56:08;6.38;;;4.95;;
24891;SDS011;12954;50.688;10.908;2023-04-25T01:58:36;6.95;;;4.43;;
24891;SDS011;12954;50.688;10.908;2023-04-25T02:01:05;5.55;;;4.38;;
24891;SDS011;12954;50.688;10.908;2023-04-25T02:03:33;7.28;;;5.10;;
24891;SDS011;12954;50.688;10.908;2023-04-25T02:06:02;6.22;;;4.90;;
24891;SDS011;12954;50.688;10.908;2023-04-25T02:08:31;6.70;;;4.43;;
24891;SDS011;12954;50.688;10.908;2023-04-25T02:11:00;6.85;;;4.68;;
24891;SDS011;12954;50.688;10.908;2023-04-25T02:13:31;5.68;;;4.53;;
24891;SDS011;12954;50.688;10.908;2023-04-25T02:15:59;7.15;;;4.72;;
24891;SDS011;12954;50.688;10.908;2023-04-25T02:18:28;5.50;;;4.53;;
24891;SDS011;12954;50.688;10.908;2023-04-25T02:20:57;7.30;;;4.07;;
24891;SDS011;12954;50.688;10.908;2023-04-25T02:23:26;7.18;;;4.45;;
24891;SDS011;12954;50.688;10.908;2023-04-25T02:25:54;5.30;;;3.85;;
24891;SDS011;12954;50.688;10.908;2023-04-25T02:28:24;6.57;;;4.50;;
24891;SDS011;12954;50.688;10.908;2023-04-25T02:30:55;7.32;;;4.65;;
24891;SDS011;12954;50.688;10.908;2023-04-25T02:33:23;5.63;;;4.22;;
24891;SDS011;12954;50.688;10.908;2023-04-25T02:35:52;5.13;;;4.50;;
24891;SDS011;12954;50.688;10.908;2023-04-25T02:38:20;7.43;;;4.60;;
24891;SDS011;12954;50.688;10.908;2023-04-25T02:40:49;5.22;;;4.07;;
24891;SDS011;12954;50.688;10.908;2023-04-25T02:43:17;6.97;;;4.28;;
24891;SDS011;12954;50.688;10.908;2023-04-25T02:45:48;5.22;;;4.35;;
24891;SDS011;12954;50.688;10.908;2023-04-25T02:48:18;5.78;;;4.28;;
24891;SDS011;12954;50.688;10.908;2023-04-25T02:50:47;7.28;;;3.67;;
24891;SDS011;12954;50.688;10.908;2023-04-25T02:53:15;6.82;;;4.43;;
24891;SDS011;12954;50.688;10.908;2023-04-25T02:55:43;6.97;;;4.18;;
24891;SDS011;12954;50.688;10.908;2023-04-25T02:58:12;5.82;;;3.80;;
24891;SDS011;12954;50.688;10.908;2023-04-25T03:00:42;5.65;;;3.70;;
24891;SDS011;12954;50.688;10.908;2023-04-25T03:03:10;5.65;;;3.72;;
24891;SDS011;12954;50.688;10.908;2023-04-25T03:05:41;9.18;;;3.72;;
24891;SDS011;12954;50.688;10.908;2023-04-25T03:08:09;4.88;;;3.35;;
24891;SDS011;12954;50.688;10.908;2023-04-25T03:10:38;7.13;;;3.92;;
24891;SDS011;12954;50.688;10.908;2023-04-25T03:13:06;6.63;;;3.75;;
24891;SDS011;12954;50.688;10.908;2023-04-25T03:15:35;7.22;;;4.28;;
24891;SDS011;12954;50.688;10.908;2023-04-25T03:18:03;4.68;;;3.50;;
24891;SDS011;12954;50.688;10.908;2023-04-25T03:20:32;4.50;;;3.45;;
24891;SDS011;12954;50.688;10.908;2023-04-25T03:23:02;4.30;;;2.97;;
24891;SDS011;12954;50.688;10.908;2023-04-25T03:25:30;4.75;;;3.35;;
24891;SDS011;12954;50.688;10.908;2023-04-25T03:27:59;5.43;;;3.70;;
24891;SDS011;12954;50.688;10.908;2023-04-25T03:30:27;5.57;;;3.45;;
24891;SDS011;12954;50.688;10.908;2023-04-25T03:32:56;4.93;;;3.20;;
24891;SDS011;12954;50.688;10.908;2023-04-25T03:35:24;6.22;;;3.40;;
24891;SDS011;12954;50.688;10.908;2023-04-25T03:37:52;4.72;;;3.20;;
24891;SDS011;12954;50.688;10.908;2023-04-25T03:40:23;8.13;;;3.65;;
24891;SDS011;12954;50.688;10.908;2023-04-25T03:42:51;6.47;;;2.83;;
24891;SDS011;12954;50.688;10.908;2023-04-25T03:45:20;5.70;;;2.90;;
24891;SDS011;12954;50.688;10.908;2023-04-25T03:47:48;5.22;;;2.88;;
24891;SDS011;12954;50.688;10.908;2023-04-25T03:50:17;5.90;;;2.90;;
24891;SDS011;12954;50.688;10.908;2023-04-25T03:52:46;4.47;;;2.65;;
24891;SDS011;12954;50.688;10.908;2023-04-25T03:55:14;4.70;;;3.20;;
24891;SDS011;12954;50.688;10.908;2023-04-25T03:57:44;6.95;;;3.55;;
24891;SDS011;12954;50.688;10.908;2023-04-25T04:00:13;3.63;;;2.72;;
24891;SDS011;12954;50.688;10.908;2023-04-25T04:02:42;5.05;;;2.50;;
24891;SDS011;12954;50.688;10.908;2023-04-25T04:05:11;5.63;;;2.53;;
24891;SDS011;12954;50.688;10.908;2023-04-25T04:07:40;7.40;;;2.88;;
24891;SDS011;12954;50.688;10.908;2023-04-25T04:10:09;6.40;;;3.15;;
24891;SDS011;12954;50.688;10.908;2023-04-25T04:12:38;7.43;;;3.50;;
24891;SDS011;12954;50.688;10.908;2023-04-25T04:15:09;5.60;;;2.80;;
24891;SDS011;12954;50.688;10.908;2023-04-25T04:17:38;4.43;;;2.30;;
24891;SDS011;12954;50.688;10.908;2023-04-25T04:20:07;5.85;;;3.33;;
24891;SDS011;12954;50.688;10.908;2023-04-25T04:22:36;4.82;;;2.75;;
24891;SDS011;12954;50.688;10.908;2023-04-25T04:25:05;5.25;;;2.50;;
24891;SDS011;12954;50.688;10.908;2023-04-25T04:27:33;6.03;;;2.72;;
24891;SDS011;12954;50.688;10.908;2023-04-25T04:30:02;7.80;;;2.50;;
24891;SDS011;12954;50.688;10.908;2023-04-25T04:32:32;4.43;;;2.70;;
24891;SDS011;12954;50.688;10.908;2023-04-25T04:35:04;4.78;;;2.50;;
24891;SDS011;12954;50.688;10.908;2023-04-25T04:37:35;3.55;;;2.25;;
24891;SDS011;12954;50.688;10.908;2023-04-25T04:40:04;5.38;;;2.58;;
24891;SDS011;12954;50.688;10.908;2023-04-25T04:42:33;5.32;;;2.22;;
24891;SDS011;12954;50.688;10.908;2023-04-25T04:45:02;6.00;;;2.33;;
24891;SDS011;12954;50.688;10.908;2023-04-25T04:47:32;3.78;;;2.60;;
24891;SDS011;12954;50.688;10.908;2023-04-25T04:50:03;3.90;;;2.55;;
24891;SDS011;12954;50.688;10.908;2023-04-25T04:52:33;6.68;;;3.20;;
24891;SDS011;12954;50.688;10.908;2023-04-25T04:55:02;6.28;;;3.00;;
24891;SDS011;12954;50.688;10.908;2023-04-25T04:57:31;4.55;;;2.20;;
24891;SDS011;12954;50.688;10.908;2023-04-25T05:00:00;4.38;;;2.40;;
24891;SDS011;12954;50.688;10.908;2023-04-25T05:02:29;4.00;;;2.03;;
24891;SDS011;12954;50.688;10.908;2023-04-25T05:04:59;6.10;;;2.38;;
24891;SDS011;12954;50.688;10.908;2023-04-25T05:07:27;5.43;;;2.30;;
24891;SDS011;12954;50.688;10.908;2023-04-25T05:09:56;5.22;;;2.15;;
24891;SDS011;12954;50.688;10.908;2023-04-25T05:12:24;7.90;;;2.00;;
24891;SDS011;12954;50.688;10.908;2023-04-25T05:14:53;5.15;;;2.35;;
24891;SDS011;12954;50.688;10.908;2023-04-25T05:17:21;4.03;;;1.92;;
24891;SDS011;12954;50.688;10.908;2023-04-25T05:19:49;3.03;;;1.70;;
24891;SDS011;12954;50.688;10.908;2023-04-25T05:22:19;4.65;;;1.80;;
24891;SDS011;12954;50.688;10.908;2023-04-25T05:24:47;5.78;;;1.70;;
24891;SDS011;12954;50.688;10.908;2023-04-25T05:27:21;3.25;;;1.67;;
24891;SDS011;12954;50.688;10.908;2023-04-25T05:29:49;5.35;;;2.35;;
24891;SDS011;12954;50.688;10.908;2023-04-25T05:32:18;6.95;;;2.17;;
24891;SDS011;12954;50.688;10.908;2023-04-25T05:34:46;4.53;;;2.05;;
24891;SDS011;12954;50.688;10.908;2023-04-25T05:37:15;4.43;;;2.10;;
24891;SDS011;12954;50.688;10.908;2023-04-25T05:39:45;6.10;;;2.03;;
24891;SDS011;12954;50.688;10.908;2023-04-25T05:42:13;6.53;;;2.38;;
24891;SDS011;12954;50.688;10.908;2023-04-25T05:44:41;3.78;;;2.10;;
24891;SDS011;12954;50.688;10.908;2023-04-25T05:47:10;5.45;;;2.20;;
24891;SDS011;12954;50.688;10.908;2023-04-25T05:49:38;6.68;;;2.15;;
24891;SDS011;12954;50.688;10.908;2023-04-25T05:52:06;3.85;;;1.80;;
24891;SDS011;12954;50.688;10.908;2023-04-25T05:54:35;6.45;;;2.42;;
24891;SDS011;12954;50.688;10.908;2023-04-25T05:57:05;3.78;;;1.70;;
24891;SDS011;12954;50.688;10.908;2023-04-25T05:59:33;3.72;;;2.20;;
24891;SDS011;12954;50.688;10.908;2023-04-25T06:02:02;5.53;;;1.90;;
24891;SDS011;12954;50.688;10.908;2023-04-25T06:04:30;5.40;;;2.53;;
24891;SDS011;12954;50.688;10.908;2023-04-25T06:06:59;7.22;;;2.25;;
24891;SDS011;12954;50.688;10.908;2023-04-25T06:09:28;5.93;;;2.03;;
24891;SDS011;12954;50.688;10.908;2023-04-25T06:11:56;4.70;;;2.15;;
24891;SDS011;12954;50.688;10.908;2023-04-25T06:14:26;3.85;;;1.95;;
24891;SDS011;12954;50.688;10.908;2023-04-25T06:16:55;4.55;;;1.75;;
24891;SDS011;12954;50.688;10.908;2023-04-25T06:19:23;6.05;;;2.20;;
24891;SDS011;12954;50.688;10.908;2023-04-25T06:21:51;3.60;;;2.00;;
24891;SDS011;12954;50.688;10.908;2023-04-25T06:24:20;3.90;;;1.77;;
24891;SDS011;12954;50.688;10.908;2023-04-25T06:26:48;5.05;;;1.60;;
24891;SDS011;12954;50.688;10.908;2023-04-25T06:29:17;6.60;;;1.90;;
24891;SDS011;12954;50.688;10.908;2023-04-25T06:31:46;3.63;;;1.52;;
24891;SDS011;12954;50.688;10.908;2023-04-25T06:34:15;6.22;;;1.92;;
24891;SDS011;12954;50.688;10.908;2023-04-25T06:36:44;5.00;;;1.92;;
24891;SDS011;12954;50.688;10.908;2023-04-25T06:39:13;5.10;;;1.92;;
24891;SDS011;12954;50.688;10.908;2023-04-25T06:41:41;5.50;;;1.90;;
24891;SDS011;12954;50.688;10.908;2023-04-25T06:44:09;5.22;;;2.03;;
24891;SDS011;12954;50.688;10.908;2023-04-25T06:46:38;6.20;;;2.03;;
24891;SDS011;12954;50.688;10.908;2023-04-25T06:49:08;5.28;;;2.22;;
24891;SDS011;12954;50.688;10.908;2023-04-25T06:51:37;5.03;;;1.85;;
24891;SDS011;12954;50.688;10.908;2023-04-25T06:54:06;3.20;;;1.83;;
24891;SDS011;12954;50.688;10.908;2023-04-25T06:56:35;3.67;;;1.48;;
24891;SDS011;12954;50.688;10.908;2023-04-25T06:59:03;3.97;;;2.13;;
24891;SDS011;12954;50.688;10.908;2023-04-25T07:01:32;5.85;;;2.00;;
24891;SDS011;12954;50.688;10.908;2023-04-25T07:04:00;3.40;;;1.80;;
24891;SDS011;12954;50.688;10.908;2023-04-25T07:06:30;5.63;;;1.52;;
24891;SDS011;12954;50.688;10.908;2023-04-25T07:08:59;4.97;;;1.73;;
24891;SDS011;12954;50.688;10.908;2023-04-25T07:11:28;6.85;;;2.25;;
24891;SDS011;12954;50.688;10.908;2023-04-25T07:13:57;4.75;;;1.70;;
24891;SDS011;12954;50.688;10.908;2023-04-25T07:16:25;2.78;;;1.80;;
24891;SDS011;12954;50.688;10.908;2023-04-25T07:18:54;4.15;;;2.08;;
24891;SDS011;12954;50.688;10.908;2023-04-25T07:21:23;3.45;;;1.75;;
24891;SDS011;12954;50.688;10.908;2023-04-25T07:23:53;4.63;;;2.00;;
24891;SDS011;12954;50.688;10.908;2023-04-25T07:26:21;4.32;;;1.80;;
24891;SDS011;12954;50.688;10.908;2023-04-25T07:28:50;3.70;;;1.90;;
24891;SDS011;12954;50.688;10.908;2023-04-25T07:31:18;7.05;;;2.30;;
24891;SDS011;12954;50.688;10.908;2023-04-25T07:33:47;2.75;;;1.55;;
24891;SDS011;12954;50.688;10.908;2023-04-25T07:36:16;2.53;;;1.42;;
24891;SDS011;12954;50.688;10.908;2023-04-25T07:38:44;5.22;;;1.40;;
24891;SDS011;12954;50.688;10.908;2023-04-25T07:41:14;1.40;;;1.00;;
24891;SDS011;12954;50.688;10.908;2023-04-25T07:43:42;2.90;;;1.13;;
24891;SDS011;12954;50.688;10.908;2023-04-25T07:46:11;3.72;;;1.02;;
24891;SDS011;12954;50.688;10.908;2023-04-25T07:48:40;1.65;;;1.02;;
24891;SDS011;12954;50.688;10.908;2023-04-25T07:51:08;1.58;;;0.90;;
24891;SDS011;12954;50.688;10.908;2023-04-25T07:53:37;2.13;;;1.02;;
24891;SDS011;12954;50.688;10.908;2023-04-25T07:56:06;2.17;;;1.10;;
24891;SDS011;12954;50.688;10.908;2023-04-25T07:58:37;1.73;;;0.93;;
24891;SDS011;12954;50.688;10.908;2023-04-25T08:01:05;2.97;;;1.10;;
24891;SDS011;12954;50.688;10.908;2023-04-25T08:03:33;2.03;;;1.30;;
24891;SDS011;12954;50.688;10.908;2023-04-25T08:06:03;1.73;;;1.20;;
24891;SDS011;12954;50.688;10.908;2023-04-25T08:08:34;3.08;;;1.10;;
24891;SDS011;12954;50.688;10.908;2023-04-25T08:11:02;2.28;;;1.10;;
24891;SDS011;12954;50.688;10.908;2023-04-25T08:13:31;2.28;;;1.25;;
24891;SDS011;12954;50.688;10.908;2023-04-25T08:16:01;4.53;;;1.30;;
24891;SDS011;12954;50.688;10.908;2023-04-25T08:18:29;2.80;;;1.58;;
24891;SDS011;12954;50.688;10.908;2023-04-25T08:20:58;2.33;;;1.60;;
24891;SDS011;12954;50.688;10.908;2023-04-25T08:23:26;4.07;;;1.55;;
24891;SDS011;12954;50.688;10.908;2023-04-25T08:25:55;1.73;;;0.93;;
24891;SDS011;12954;50.688;10.908;2023-04-25T08:28:23;3.13;;;1.30;;
24891;SDS011;12954;50.688;10.908;2023-04-25T08:30:52;2.63;;;1.70;;
24891;SDS011;12954;50.688;10.908;2023-04-25T08:33:24;2.78;;;1.67;;
24891;SDS011;12954;50.688;10.908;2023-04-25T08:35:52;2.75;;;2.28;;
24891;SDS011;12954;50.688;10.908;2023-04-25T08:38:21;3.60;;;1.75;;
24891;SDS011;12954;50.688;10.908;2023-04-25T08:40:50;3.75;;;1.65;;
24891;SDS011;12954;50.688;10.908;2023-04-25T08:43:19;3.42;;;1.65;;
24891;SDS011;12954;50.688;10.908;2023-04-25T08:45:48;3.30;;;1.50;;
24891;SDS011;12954;50.688;10.908;2023-04-25T08:48:16;2.50;;;1.65;;
24891;SDS011;12954;50.688;10.908;2023-04-25T08:50:53;1.98;;;1.23;;
24891;SDS011;12954;50.688;10.908;2023-04-25T08:53:25;2.33;;;1.00;;
24891;SDS011;12954;50.688;10.908;2023-04-25T08:55:57;3.75;;;1.30;;
24891;SDS011;12954;50.688;10.908;2023-04-25T08:58:28;2.00;;;1.10;;
24891;SDS011;12954;50.688;10.908;2023-04-25T09:00:57;3.42;;;1.73;;
24891;SDS011;12954;50.688;10.908;2023-04-25T09:03:26;2.10;;;1.65;;
24891;SDS011;12954;50.688;10.908;2023-04-25T09:05:57;3.28;;;1.90;;
24891;SDS011;12954;50.688;10.908;2023-04-25T09:08:26;2.97;;;1.70;;
24891;SDS011;12954;50.688;10.908;2023-04-25T09:10:54;2.65;;;1.25;;
24891;SDS011;12954;50.688;10.908;2023-04-25T09:13:26;3.40;;;1.40;;
24891;SDS011;12954;50.688;10.908;2023-04-25T09:15:55;3.63;;;1.70;;
24891;SDS011;12954;50.688;10.908;2023-04-25T09:18:25;3.00;;;1.50;;
24891;SDS011;12954;50.688;10.908;2023-04-25T09:20:58;2.08;;;1.40;;
24891;SDS011;12954;50.688;10.908;2023-04-25T09:23:40;3.03;;;1.63;;
24891;SDS011;12954;50.688;10.908;2023-04-25T09:26:09;2.70;;;1.73;;
24891;SDS011;12954;50.688;10.908;2023-04-25T09:28:41;1.80;;;1.50;;
24891;SDS011;12954;50.688;10.908;2023-04-25T09:31:10;1.98;;;1.35;;
24891;SDS011;12954;50.688;10.908;2023-04-25T09:33:40;4.03;;;1.38;;
24891;SDS011;12954;50.688;10.908;2023-04-25T09:36:10;2.10;;;1.23;;
24891;SDS011;12954;50.688;10.908;2023-04-25T09:38:40;1.75;;;1.40;;
24891;SDS011;12954;50.688;10.908;2023-04-25T09:41:10;1.98;;;1.48;;
24891;SDS011;12954;50.688;10.908;2023-04-25T09:43:39;4.10;;;2.45;;
24891;SDS011;12954;50.688;10.908;2023-04-25T09:46:07;3.58;;;1.60;;
24891;SDS011;12954;50.688;10.908;2023-04-25T09:48:38;3.13;;;1.58;;
24891;SDS011;12954;50.688;10.908;2023-04-25T09:51:07;2.03;;;1.25;;
24891;SDS011;12954;50.688;10.908;2023-04-25T09:53:39;2.92;;;1.35;;
24891;SDS011;12954;50.688;10.908;2023-04-25T09:56:09;2.53;;;1.58;;
24891;SDS011;12954;50.688;10.908;2023-04-25T09:58:39;1.50;;;1.23;;
24891;SDS011;12954;50.688;10.908;2023-04-25T10:01:09;1.70;;;1.00;;
24891;SDS011;12954;50.688;10.908;2023-04-25T10:03:39;1.45;;;1.15;;
24891;SDS011;12954;50.688;10.908;2023-04-25T10:06:11;2.35;;;0.90;;
24891;SDS011;12954;50.688;10.908;2023-04-25T10:08:43;1.40;;;0.45;;
24891;SDS011;12954;50.688;10.908;2023-04-25T10:11:13;0.65;;;0.65;;
24891;SDS011;12954;50.688;10.908;2023-04-25T10:13:47;1.67;;;1.10;;
24891;SDS011;12954;50.688;10.908;2023-04-25T10:16:16;1.23;;;0.85;;
24891;SDS011;12954;50.688;10.908;2023-04-25T10:18:45;1.83;;;1.00;;
24891;SDS011;12954;50.688;10.908;2023-04-25T10:21:14;3.30;;;1.23;;
24891;SDS011;12954;50.688;10.908;2023-04-25T10:23:45;3.72;;;1.48;;
24891;SDS011;12954;50.688;10.908;2023-04-25T10:26:15;3.60;;;1.23;;
24891;SDS011;12954;50.688;10.908;2023-04-25T10:28:56;3.10;;;1.33;;
24891;SDS011;12954;50.688;10.908;2023-04-25T10:31:26;4.85;;;1.73;;
24891;SDS011;12954;50.688;10.908;2023-04-25T10:33:54;2.80;;;1.70;;
24891;SDS011;12954;50.688;10.908;2023-04-25T10:36:23;5.25;;;1.70;;
24891;SDS011;12954;50.688;10.908;2023-04-25T10:38:55;4.97;;;1.75;;
24891;SDS011;12954;50.688;10.908;2023-04-25T10:41:24;4.65;;;1.65;;
24891;SDS011;12954;50.688;10.908;2023-04-25T10:43:58;4.78;;;1.73;;
24891;SDS011;12954;50.688;10.908;2023-04-25T10:46:29;5.97;;;1.80;;
24891;SDS011;12954;50.688;10.908;2023-04-25T10:48:58;7.20;;;1.90;;
24891;SDS011;12954;50.688;10.908;2023-04-25T10:51:28;6.25;;;1.80;;
24891;SDS011;12954;50.688;10.908;2023-04-25T10:54:20;6.00;;;1.95;;
24891;SDS011;12954;50.688;10.908;2023-04-25T10:56:52;6.95;;;1.95;;
24891;SDS011;12954;50.688;10.908;2023-04-25T10:59:20;5.13;;;2.00;;
24891;SDS011;12954;50.688;10.908;2023-04-25T11:01:52;4.05;;;1.67;;
24891;SDS011;12954;50.688;10.908;2023-04-25T11:04:22;6.15;;;2.10;;
24891;SDS011;12954;50.688;10.908;2023-04-25T11:06:57;4.07;;;2.05;;
24891;SDS011;12954;50.688;10.908;2023-04-25T11:09:35;8.50;;;1.98;;
24891;SDS011;12954;50.688;10.908;2023-04-25T11:12:07;2.78;;;1.33;;
24891;SDS011;12954;50.688;10.908;2023-04-25T11:14:38;3.97;;;1.70;;
24891;SDS011;12954;50.688;10.908;2023-04-25T11:17:07;6.18;;;2.10;;
24891;SDS011;12954;50.688;10.908;2023-04-25T11:19:37;3.17;;;1.48;;
24891;SDS011;12954;50.688;10.908;2023-04-25T11:22:05;3.63;;;1.52;;
24891;SDS011;12954;50.688;10.908;2023-04-25T11:24:36;6.90;;;1.80;;
24891;SDS011;12954;50.688;10.908;2023-04-25T11:27:04;4.60;;;1.80;;
24891;SDS011;12954;50.688;10.908;2023-04-25T11:29:33;3.05;;;1.33;;
24891;SDS011;12954;50.688;10.908;2023-04-25T11:32:02;3.50;;;1.33;;
24891;SDS011;12954;50.688;10.908;2023-04-25T11:34:32;5.82;;;1.70;;
24891;SDS011;12954;50.688;10.908;2023-04-25T11:37:01;6.05;;;1.55;;
24891;SDS011;12954;50.688;10.908;2023-04-25T11:39:30;5.50;;;1.88;;
24891;SDS011;12954;50.688;10.908;2023-04-25T11:42:00;3.72;;;1.70;;
24891;SDS011;12954;50.688;10.908;2023-04-25T11:44:39;4.68;;;1.60;;
24891;SDS011;12954;50.688;10.908;2023-04-25T11:47:08;5.43;;;1.80;;
24891;SDS011;12954;50.688;10.908;2023-04-25T11:49:36;7.38;;;1.77;;
24891;SDS011;12954;50.688;10.908;2023-04-25T11:52:06;4.68;;;1.73;;
24891;SDS011;12954;50.688;10.908;2023-04-25T11:54:35;3.50;;;1.80;;
24891;SDS011;12954;50.688;10.908;2023-04-25T11:57:06;4.47;;;2.05;;
24891;SDS011;12954;50.688;10.908;2023-04-25T11:59:34;4.43;;;1.60;;
24891;SDS011;12954;50.688;10.908;2023-04-25T12:02:03;5.57;;;1.73;;
24891;SDS011;12954;50.688;10.908;2023-04-25T12:04:33;4.50;;;2.05;;
24891;SDS011;12954;50.688;10.908;2023-04-25T12:07:02;9.15;;;2.10;;
24891;SDS011;12954;50.688;10.908;2023-04-25T12:09:32;5.25;;;2.17;;
24891;SDS011;12954;50.688;10.908;2023-04-25T12:12:01;5.68;;;2.50;;
24891;SDS011;12954;50.688;10.908;2023-04-25T12:14:32;7.22;;;2.50;;
24891;SDS011;12954;50.688;10.908;2023-04-25T12:17:03;8.00;;;2.30;;
24891;SDS011;12954;50.688;10.908;2023-04-25T12:19:35;7.25;;;2.30;;
24891;SDS011;12954;50.688;10.908;2023-04-25T12:22:18;5.20;;;2.60;;
24891;SDS011;12954;50.688;10.908;2023-04-25T12:24:48;6.93;;;2.42;;
24891;SDS011;12954;50.688;10.908;2023-04-25T12:27:16;8.18;;;3.13;;
24891;SDS011;12954;50.688;10.908;2023-04-25T12:29:54;5.18;;;2.58;;
24891;SDS011;12954;50.688;10.908;2023-04-25T12:32:24;12.05;;;3.10;;
24891;SDS011;12954;50.688;10.908;2023-04-25T12:34:53;7.85;;;2.40;;
24891;SDS011;12954;50.688;10.908;2023-04-25T12:37:21;7.97;;;3.03;;
24891;SDS011;12954;50.688;10.908;2023-04-25T12:39:49;6.22;;;2.10;;
24891;SDS011;12954;50.688;10.908;2023-04-25T12:42:18;7.30;;;2.05;;
24891;SDS011;12954;50.688;10.908;2023-04-25T12:44:46;8.90;;;2.60;;
24891;SDS011;12954;50.688;10.908;2023-04-25T12:47:16;13.23;;;3.13;;
24891;SDS011;12954;50.688;10.908;2023-04-25T12:49:45;8.63;;;2.40;;
24891;SDS011;12954;50.688;10.908;2023-04-25T12:52:13;4.32;;;1.95;;
24891;SDS011;12954;50.688;10.908;2023-04-25T12:54:42;7.82;;;2.45;;
24891;SDS011;12954;50.688;10.908;2023-04-25T12:57:10;6.00;;;2.65;;
24891;SDS011;12954;50.688;10.908;2023-04-25T12:59:39;6.60;;;2.30;;
24891;SDS011;12954;50.688;10.908;2023-04-25T13:02:07;13.13;;;3.15;;
24891;SDS011;12954;50.688;10.908;2023-04-25T13:04:37;7.53;;;2.88;;
24891;SDS011;12954;50.688;10.908;2023-04-25T13:07:05;6.90;;;2.42;;
24891;SDS011;12954;50.688;10.908;2023-04-25T13:09:34;6.72;;;2.08;;
24891;SDS011;12954;50.688;10.908;2023-04-25T13:12:03;12.57;;;3.28;;
24891;SDS011;12954;50.688;10.908;2023-04-25T13:14:32;7.75;;;2.53;;
24891;SDS011;12954;50.688;10.908;2023-04-25T13:17:00;6.15;;;2.22;;
24891;SDS011;12954;50.688;10.908;2023-04-25T13:19:29;9.55;;;2.65;;
24891;SDS011;12954;50.688;10.908;2023-04-25T13:21:59;12.90;;;2.20;;
24891;SDS011;12954;50.688;10.908;2023-04-25T13:24:30;7.60;;;2.28;;
24891;SDS011;12954;50.688;10.908;2023-04-25T13:26:59;7.55;;;2.28;;
24891;SDS011;12954;50.688;10.908;2023-04-25T13:29:28;5.72;;;2.22;;
24891;SDS011;12954;50.688;10.908;2023-04-25T13:31:56;8.70;;;2.50;;
24891;SDS011;12954;50.688;10.908;2023-04-25T13:34:24;5.53;;;2.00;;
24891;SDS011;12954;50.688;10.908;2023-04-25T13:36:53;7.68;;;2.17;;
24891;SDS011;12954;50.688;10.908;2023-04-25T13:39:22;6.50;;;2.08;;
24891;SDS011;12954;50.688;10.908;2023-04-25T13:41:51;11.20;;;2.10;;
24891;SDS011;12954;50.688;10.908;2023-04-25T13:44:20;8.82;;;2.30;;
24891;SDS011;12954;50.688;10.908;2023-04-25T13:46:48;8.73;;;2.50;;
24891;SDS011;12954;50.688;10.908;2023-04-25T13:49:17;4.80;;;1.98;;
24891;SDS011;12954;50.688;10.908;2023-04-25T13:51:45;10.38;;;1.90;;
24891;SDS011;12954;50.688;10.908;2023-04-25T13:54:14;7.90;;;2.25;;
24891;SDS011;12954;50.688;10.908;2023-04-25T13:56:43;6.88;;;2.10;;
24891;SDS011;12954;50.688;10.908;2023-04-25T13:59:13;7.00;;;2.85;;
24891;SDS011;12954;50.688;10.908;2023-04-25T14:01:41;6.28;;;2.50;;
24891;SDS011;12954;50.688;10.908;2023-04-25T14:04:10;8.48;;;2.78;;
24891;SDS011;12954;50.688;10.908;2023-04-25T14:06:38;8.65;;;2.63;;
24891;SDS011;12954;50.688;10.908;2023-04-25T14:09:07;9.60;;;3.05;;
24891;SDS011;12954;50.688;10.908;2023-04-25T14:11:36;6.38;;;2.30;;
24891;SDS011;12954;50.688;10.908;2023-04-25T14:14:07;8.02;;;2.55;;
24891;SDS011;12954;50.688;10.908;2023-04-25T14:16:35;5.85;;;2.70;;
24891;SDS011;12954;50.688;10.908;2023-04-25T14:19:03;8.13;;;2.40;;
24891;SDS011;12954;50.688;10.908;2023-04-25T14:21:32;7.25;;;2.38;;
24891;SDS011;12954;50.688;10.908;2023-04-25T14:24:01;7.80;;;2.50;;
24891;SDS011;12954;50.688;10.908;2023-04-25T14:26:31;9.32;;;2.35;;
24891;SDS011;12954;50.688;10.908;2023-04-25T14:29:00;6.57;;;2.33;;
24891;SDS011;12954;50.688;10.908;2023-04-25T14:31:31;4.65;;;1.83;;
24891;SDS011;12954;50.688;10.908;2023-04-25T14:33:59;7.40;;;1.88;;
24891;SDS011;12954;50.688;10.908;2023-04-25T14:36:28;7.53;;;1.98;;
24891;SDS011;12954;50.688;10.908;2023-04-25T14:38:57;5.72;;;1.60;;
24891;SDS011;12954;50.688;10.908;2023-04-25T14:41:27;5.88;;;1.80;;
24891;SDS011;12954;50.688;10.908;2023-04-25T14:43:55;5.28;;;1.90;;
24891;SDS011;12954;50.688;10.908;2023-04-25T14:46:24;9.27;;;2.10;;